createdAt,value
2018-03-03T00:00:57.323Z,991.2
2018-03-03T00:01:57.331Z,991.21
2018-03-03T00:02:57.338Z,991.22
2018-03-03T00:03:57.345Z,991.21
2018-03-03T00:04:57.352Z,991.17
2018-03-03T00:05:57.359Z,991.15
2018-03-03T00:06:57.367Z,991.2
2018-03-03T00:07:57.376Z,991.18
2018-03-03T00:08:57.382Z,991.21
2018-03-03T00:09:57.389Z,991.27
2018-03-03T00:10:57.396Z,991.23
2018-03-03T00:11:57.404Z,991.28
2018-03-03T00:12:57.411Z,991.28
2018-03-03T00:13:57.418Z,991.27
2018-03-03T00:14:57.427Z,991.3
2018-03-03T00:15:57.436Z,991.23
2018-03-03T00:16:57.441Z,991.23
2018-03-03T00:17:57.449Z,991.26
2018-03-03T00:18:57.456Z,991.29
2018-03-03T00:19:57.465Z,991.27
2018-03-03T00:20:57.469Z,991.23
2018-03-03T00:21:57.478Z,991.25
2018-03-03T00:22:57.485Z,991.21
2018-03-03T00:23:57.491Z,991.23
2018-03-03T00:24:57.499Z,991.24
2018-03-03T00:25:57.541Z,991.24
2018-03-03T00:26:57.515Z,991.24
2018-03-03T00:27:57.521Z,991.27
2018-03-03T00:28:57.528Z,991.26
2018-03-03T00:29:57.535Z,991.27
2018-03-03T00:30:57.544Z,991.22
2018-03-03T00:31:57.549Z,991.25
2018-03-03T00:32:57.556Z,991.27
2018-03-03T00:33:57.574Z,991.3
2018-03-03T00:34:57.580Z,991.27
2018-03-03T00:35:57.586Z,991.3
2018-03-03T00:36:57.585Z,991.25
2018-03-03T00:37:57.594Z,991.26
2018-03-03T00:38:57.604Z,991.2
2018-03-03T00:39:57.607Z,991.22
2018-03-03T00:40:57.614Z,991.18
2018-03-03T00:41:57.623Z,991.2
2018-03-03T00:42:57.628Z,991.19
2018-03-03T00:43:57.639Z,991.18
2018-03-03T00:44:57.643Z,991.16
2018-03-03T00:45:57.649Z,991.17
2018-03-03T00:46:57.658Z,991.16
2018-03-03T00:47:57.667Z,991.18
2018-03-03T00:48:57.672Z,991.11
2018-03-03T00:49:57.681Z,991.15
2018-03-03T00:50:57.686Z,991.15
2018-03-03T00:51:57.697Z,991.12
2018-03-03T00:52:57.702Z,991.12
2018-03-03T00:53:57.710Z,991.15
2018-03-03T00:54:57.715Z,991.15
2018-03-03T00:55:57.721Z,991.12
2018-03-03T00:56:57.728Z,991.1
2018-03-03T00:57:57.736Z,991.1
2018-03-03T00:58:57.743Z,991.1
2018-03-03T00:59:57.750Z,991.13
2018-03-03T01:00:57.760Z,991.14
2018-03-03T01:01:57.814Z,991.18
2018-03-03T01:02:57.771Z,991.14
2018-03-03T01:03:57.779Z,991.15
2018-03-03T01:04:57.787Z,991.19
2018-03-03T01:05:57.795Z,991.13
2018-03-03T01:06:57.800Z,991.17
2018-03-03T01:07:57.806Z,991.24
2018-03-03T01:08:57.813Z,991.23
2018-03-03T01:09:57.821Z,991.23
2018-03-03T01:10:57.832Z,991.27
2018-03-03T01:11:57.886Z,991.24
2018-03-03T01:12:57.844Z,991.21
2018-03-03T01:13:57.851Z,991.18
2018-03-03T01:14:57.857Z,991.19
2018-03-03T01:15:57.866Z,991.19
2018-03-03T01:16:57.922Z,991.21
2018-03-03T01:17:57.878Z,991.15
2018-03-03T01:18:57.884Z,991.14
2018-03-03T01:19:57.895Z,991.17
2018-03-03T01:20:57.899Z,991.2
2018-03-03T01:21:57.907Z,991.16
2018-03-03T01:22:57.912Z,991.16
2018-03-03T01:23:57.919Z,991.14
2018-03-03T01:24:57.926Z,991.12
2018-03-03T01:25:57.933Z,991.16
2018-03-03T01:26:57.941Z,991.15
2018-03-03T01:27:57.947Z,991.12
2018-03-03T01:28:57.954Z,991.13
2018-03-03T01:29:57.961Z,991.1
2018-03-03T01:30:57.969Z,991.13
2018-03-03T01:31:58.026Z,991.13
2018-03-03T01:32:57.983Z,991.1
2018-03-03T01:33:57.989Z,991.1
2018-03-03T01:34:57.995Z,991.08
2018-03-03T01:35:58.003Z,991.03
2018-03-03T01:36:58.010Z,991.09
2018-03-03T01:37:58.017Z,991.05
2018-03-03T01:38:58.029Z,991.12
2018-03-03T01:39:58.030Z,991.1
2018-03-03T01:40:58.036Z,991.14
2018-03-03T01:41:58.044Z,991.13
2018-03-03T01:42:58.050Z,991.15
2018-03-03T01:43:58.058Z,991.12
2018-03-03T01:44:58.064Z,991.15
2018-03-03T01:45:58.071Z,991.13
2018-03-03T01:46:58.129Z,991.11
2018-03-03T01:47:58.087Z,991.12
2018-03-03T01:48:58.094Z,991.09
2018-03-03T01:49:58.099Z,991.17
2018-03-03T01:50:58.107Z,991.14
2018-03-03T01:51:58.164Z,991.16
2018-03-03T01:52:58.120Z,991.14
2018-03-03T01:53:58.131Z,991.11
2018-03-03T01:54:58.135Z,991.13
2018-03-03T01:55:58.140Z,991.1
2018-03-03T01:56:58.198Z,991.13
2018-03-03T01:57:58.156Z,991.13
2018-03-03T01:58:58.160Z,991.12
2018-03-03T01:59:58.171Z,991.11
2018-03-03T02:00:58.175Z,991.13
2018-03-03T02:01:58.232Z,991.13
2018-03-03T02:02:58.188Z,991.11
2018-03-03T02:03:58.196Z,991.11
2018-03-03T02:04:58.201Z,991.16
2018-03-03T02:05:58.210Z,991.14
2018-03-03T02:06:58.266Z,991.19
2018-03-03T02:07:58.224Z,991.23
2018-03-03T02:08:58.230Z,991.26
2018-03-03T02:09:58.236Z,991.26
2018-03-03T02:10:58.243Z,991.24
2018-03-03T02:11:58.250Z,991.21
2018-03-03T02:12:58.302Z,991.23
2018-03-03T02:13:58.266Z,991.21
2018-03-03T02:14:58.284Z,991.18
2018-03-03T02:15:58.276Z,991.19
2018-03-03T02:16:58.283Z,991.15
2018-03-03T02:17:58.290Z,991.18
2018-03-03T02:18:58.301Z,991.2
2018-03-03T02:19:58.304Z,991.25
2018-03-03T02:20:58.311Z,991.23
2018-03-03T02:21:58.316Z,991.24
2018-03-03T02:22:58.325Z,991.27
2018-03-03T02:23:58.331Z,991.27
2018-03-03T02:24:58.338Z,991.29
2018-03-03T02:25:58.347Z,991.24
2018-03-03T02:26:58.350Z,991.24
2018-03-03T02:27:58.358Z,991.18
2018-03-03T02:28:58.364Z,991.22
2018-03-03T02:29:58.371Z,991.21
2018-03-03T02:30:58.380Z,991.22
2018-03-03T02:31:58.383Z,991.18
2018-03-03T02:32:58.391Z,991.22
2018-03-03T02:33:58.399Z,991.21
2018-03-03T02:34:58.406Z,991.2
2018-03-03T02:35:58.414Z,991.18
2018-03-03T02:36:58.420Z,991.15
2018-03-03T02:37:58.426Z,991.2
2018-03-03T02:38:58.431Z,991.15
2018-03-03T02:39:58.438Z,991.14
2018-03-03T02:40:58.445Z,991.17
2018-03-03T02:41:58.461Z,991.16
2018-03-03T02:42:58.457Z,991.17
2018-03-03T02:43:58.465Z,991.23
2018-03-03T02:44:58.476Z,991.23
2018-03-03T02:45:58.549Z,991.23
2018-03-03T02:46:58.580Z,991.22
2018-03-03T02:47:58.526Z,991.21
2018-03-03T02:48:58.521Z,991.2
2018-03-03T02:49:58.556Z,991.26
2018-03-03T02:50:58.579Z,991.27
2018-03-03T02:51:58.573Z,991.28
2018-03-03T02:52:58.525Z,991.29
2018-03-03T02:53:58.532Z,991.3
2018-03-03T02:54:58.536Z,991.31
2018-03-03T02:55:58.543Z,991.32
2018-03-03T02:56:58.552Z,991.28
2018-03-03T02:57:58.555Z,991.32
2018-03-03T02:58:58.639Z,991.31
2018-03-03T02:59:58.661Z,991.26
2018-03-03T03:00:58.671Z,991.27
2018-03-03T03:01:58.624Z,991.24
2018-03-03T03:02:58.589Z,991.22
2018-03-03T03:03:58.595Z,991.23
2018-03-03T03:04:58.600Z,991.27
2018-03-03T03:05:58.608Z,991.3
2018-03-03T03:06:58.615Z,991.28
2018-03-03T03:07:58.658Z,991.29
2018-03-03T03:08:58.626Z,991.3
2018-03-03T03:09:58.633Z,991.31
2018-03-03T03:10:58.641Z,991.29
2018-03-03T03:11:58.648Z,991.3
2018-03-03T03:12:58.653Z,991.31
2018-03-03T03:13:58.742Z,991.29
2018-03-03T03:14:58.667Z,991.27
2018-03-03T03:15:58.674Z,991.23
2018-03-03T03:16:58.769Z,991.22
2018-03-03T03:17:58.688Z,991.19
2018-03-03T03:18:58.717Z,991.19
2018-03-03T03:19:58.698Z,991.19
2018-03-03T03:20:58.707Z,991.19
2018-03-03T03:21:58.725Z,991.18
2018-03-03T03:22:58.718Z,991.22
2018-03-03T03:23:58.726Z,991.17
2018-03-03T03:24:58.779Z,991.15
2018-03-03T03:25:58.804Z,991.08
2018-03-03T03:26:58.824Z,991.08
2018-03-03T03:27:58.750Z,991.07
2018-03-03T03:28:58.759Z,991.03
2018-03-03T03:29:58.765Z,991.02
2018-03-03T03:30:58.771Z,991.04
2018-03-03T03:31:58.776Z,991.02
2018-03-03T03:32:58.783Z,990.98
2018-03-03T03:33:58.789Z,990.95
2018-03-03T03:34:58.797Z,990.96
2018-03-03T03:35:58.806Z,990.96
2018-03-03T03:36:58.809Z,990.93
2018-03-03T03:37:58.816Z,990.97
2018-03-03T03:38:58.827Z,990.92
2018-03-03T03:39:58.829Z,990.95
2018-03-03T03:40:58.841Z,990.93
2018-03-03T03:41:58.842Z,990.91
2018-03-03T03:42:58.853Z,990.94
2018-03-03T03:43:58.854Z,990.92
2018-03-03T03:44:58.859Z,990.89
2018-03-03T03:45:58.867Z,990.9
2018-03-03T03:46:58.873Z,990.94
2018-03-03T03:47:58.879Z,990.91
2018-03-03T03:48:58.885Z,990.91
2018-03-03T03:49:58.892Z,990.89
2018-03-03T03:50:58.898Z,990.87
2018-03-03T03:51:58.905Z,990.88
2018-03-03T03:52:58.910Z,990.86
2018-03-03T03:53:58.919Z,990.91
2018-03-03T03:54:58.924Z,990.83
2018-03-03T03:55:58.930Z,990.87
2018-03-03T03:56:58.938Z,990.87
2018-03-03T03:57:58.993Z,990.92
2018-03-03T03:58:58.949Z,990.9
2018-03-03T03:59:58.955Z,990.87
2018-03-03T04:00:58.962Z,990.84
2018-03-03T04:01:59.002Z,990.86
2018-03-03T04:02:58.975Z,990.85
2018-03-03T04:03:58.983Z,990.85
2018-03-03T04:04:58.988Z,990.83
2018-03-03T04:05:58.994Z,990.85
2018-03-03T04:06:58.999Z,990.9
2018-03-03T04:07:59.006Z,990.86
2018-03-03T04:08:59.013Z,990.89
2018-03-03T04:09:59.023Z,990.89
2018-03-03T04:10:59.026Z,990.89
2018-03-03T04:11:59.031Z,990.9
2018-03-03T04:12:59.038Z,990.87
2018-03-03T04:13:59.047Z,990.86
2018-03-03T04:14:59.050Z,990.85
2018-03-03T04:15:59.062Z,990.85
2018-03-03T04:16:59.064Z,990.81
2018-03-03T04:17:59.072Z,990.75
2018-03-03T04:18:59.074Z,990.75
2018-03-03T04:19:59.082Z,990.78
2018-03-03T04:20:59.088Z,990.76
2018-03-03T04:21:59.093Z,990.8
2018-03-03T04:22:59.100Z,990.79
2018-03-03T04:23:59.108Z,990.78
2018-03-03T04:24:59.114Z,990.81
2018-03-03T04:25:59.124Z,990.79
2018-03-03T04:26:59.125Z,990.77
2018-03-03T04:27:59.132Z,990.79
2018-03-03T04:28:59.137Z,990.77
2018-03-03T04:29:59.144Z,990.83
2018-03-03T04:30:59.150Z,990.8
2018-03-03T04:31:59.157Z,990.76
2018-03-03T04:32:59.162Z,990.76
2018-03-03T04:33:59.325Z,990.72
2018-03-03T04:34:59.175Z,990.77
2018-03-03T04:35:59.180Z,990.73
2018-03-03T04:36:59.188Z,990.7
2018-03-03T04:37:59.194Z,990.72
2018-03-03T04:38:59.250Z,990.71
2018-03-03T04:39:59.206Z,990.66
2018-03-03T04:40:59.212Z,990.67
2018-03-03T04:41:59.219Z,990.65
2018-03-03T04:42:59.228Z,990.63
2018-03-03T04:43:59.329Z,990.63
2018-03-03T04:44:59.236Z,990.62
2018-03-03T04:45:59.243Z,990.64
2018-03-03T04:46:59.251Z,990.58
2018-03-03T04:47:59.257Z,990.62
2018-03-03T04:48:59.263Z,990.6
2018-03-03T04:49:59.268Z,990.58
2018-03-03T04:50:59.311Z,990.58
2018-03-03T04:51:59.280Z,990.59
2018-03-03T04:52:59.286Z,990.6
2018-03-03T04:53:59.300Z,990.59
2018-03-03T04:54:59.298Z,990.55
2018-03-03T04:55:59.305Z,990.56
2018-03-03T04:56:59.311Z,990.51
2018-03-03T04:57:59.320Z,990.51
2018-03-03T04:58:59.323Z,990.53
2018-03-03T04:59:59.330Z,990.47
2018-03-03T05:00:59.337Z,990.52
2018-03-03T05:01:59.342Z,990.48
2018-03-03T05:02:59.350Z,990.49
2018-03-03T05:03:59.354Z,990.44
2018-03-03T05:04:59.360Z,990.42
2018-03-03T05:05:59.366Z,990.38
2018-03-03T05:06:59.376Z,990.42
2018-03-03T05:07:59.379Z,990.37
2018-03-03T05:08:59.436Z,990.37
2018-03-03T05:09:59.391Z,990.36
2018-03-03T05:10:59.401Z,990.33
2018-03-03T05:11:59.404Z,990.35
2018-03-03T05:12:59.408Z,990.32
2018-03-03T05:13:59.415Z,990.32
2018-03-03T05:14:59.423Z,990.25
2018-03-03T05:15:59.429Z,990.22
2018-03-03T05:16:59.435Z,990.22
2018-03-03T05:17:59.441Z,990.15
2018-03-03T05:18:59.446Z,990.15
2018-03-03T05:19:59.452Z,990.16
2018-03-03T05:20:59.458Z,990.19
2018-03-03T05:21:59.465Z,990.2
2018-03-03T05:22:59.471Z,990.18
2018-03-03T05:23:59.479Z,990.19
2018-03-03T05:24:59.483Z,990.17
2018-03-03T05:25:59.489Z,990.2
2018-03-03T05:26:59.496Z,990.18
2018-03-03T05:27:59.501Z,990.18
2018-03-03T05:28:59.508Z,990.2
2018-03-03T05:29:59.516Z,990.15
2018-03-03T05:30:59.532Z,990.12
2018-03-03T05:31:59.526Z,990.06
2018-03-03T05:32:59.532Z,990.02
2018-03-03T05:33:59.538Z,989.97
2018-03-03T05:34:59.545Z,989.94
2018-03-03T05:35:59.550Z,989.98
2018-03-03T05:36:59.557Z,989.99
2018-03-03T05:37:59.562Z,989.97
2018-03-03T05:38:59.568Z,989.94
2018-03-03T05:39:59.577Z,989.97
2018-03-03T05:40:59.581Z,989.98
2018-03-03T05:41:59.586Z,990
2018-03-03T05:42:59.593Z,990.01
2018-03-03T05:43:59.600Z,990.01
2018-03-03T05:44:59.605Z,990.03
2018-03-03T05:45:59.618Z,989.99
2018-03-03T05:46:59.621Z,990.03
2018-03-03T05:47:59.623Z,990.06
2018-03-03T05:48:59.632Z,990.05
2018-03-03T05:49:59.635Z,990.05
2018-03-03T05:50:59.642Z,990.06
2018-03-03T05:51:59.647Z,990.05
2018-03-03T05:52:59.658Z,990.03
2018-03-03T05:53:59.668Z,990.05
2018-03-03T05:54:59.666Z,989.97
2018-03-03T05:55:59.672Z,990.02
2018-03-03T05:56:59.677Z,990
2018-03-03T05:57:59.684Z,990.04
2018-03-03T05:58:59.692Z,989.99
2018-03-03T05:59:59.696Z,989.96
2018-03-03T06:00:59.703Z,990.01
2018-03-03T06:01:59.708Z,989.99
2018-03-03T06:02:59.715Z,989.96
2018-03-03T06:03:59.720Z,989.98
2018-03-03T06:04:59.725Z,989.98
2018-03-03T06:05:59.731Z,990.01
2018-03-03T06:06:59.739Z,990.02
2018-03-03T06:07:59.744Z,990.05
2018-03-03T06:08:59.751Z,990.04
2018-03-03T06:09:59.758Z,990.04
2018-03-03T06:10:59.763Z,990.07
2018-03-03T06:11:59.770Z,990.05
2018-03-03T06:12:59.775Z,990.07
2018-03-03T06:13:59.782Z,990.05
2018-03-03T06:14:59.786Z,990.01
2018-03-03T06:15:59.801Z,990.04
2018-03-03T06:16:59.798Z,990.06
2018-03-03T06:17:59.805Z,990.08
2018-03-03T06:18:59.810Z,990.05
2018-03-03T06:19:59.866Z,990.14
2018-03-03T06:20:59.828Z,990.14
2018-03-03T06:21:59.829Z,990.22
2018-03-03T06:22:59.834Z,990.2
2018-03-03T06:23:59.840Z,990.23
2018-03-03T06:24:59.847Z,990.24
2018-03-03T06:25:59.855Z,990.27
2018-03-03T06:26:59.858Z,990.28
2018-03-03T06:27:59.866Z,990.27
2018-03-03T06:28:59.872Z,990.27
2018-03-03T06:29:59.927Z,990.31
2018-03-03T06:30:59.883Z,990.31
2018-03-03T06:31:59.889Z,990.28
2018-03-03T06:32:59.897Z,990.28
2018-03-03T06:33:59.902Z,990.32
2018-03-03T06:34:59.958Z,990.31
2018-03-03T06:35:59.915Z,990.33
2018-03-03T06:36:59.920Z,990.34
2018-03-03T06:37:59.929Z,990.32
2018-03-03T06:38:59.933Z,990.31
2018-03-03T06:39:59.990Z,990.33
2018-03-03T06:40:59.945Z,990.32
2018-03-03T06:41:59.952Z,990.28
2018-03-03T06:42:59.956Z,990.29
2018-03-03T06:43:59.963Z,990.32
2018-03-03T06:45:00.021Z,990.3
2018-03-03T06:45:59.975Z,990.31
2018-03-03T06:46:59.981Z,990.29
2018-03-03T06:47:59.988Z,990.27
2018-03-03T06:48:59.992Z,990.23
2018-03-03T06:50:00.050Z,990.23
2018-03-03T06:51:00.005Z,990.23
2018-03-03T06:52:00.011Z,990.23
2018-03-03T06:53:00.021Z,990.23
2018-03-03T06:54:00.023Z,990.22
2018-03-03T06:55:00.079Z,990.25
2018-03-03T06:56:00.035Z,990.27
2018-03-03T06:57:00.041Z,990.26
2018-03-03T06:58:00.047Z,990.31
2018-03-03T06:59:00.053Z,990.32
2018-03-03T07:00:00.061Z,990.34
2018-03-03T07:01:00.067Z,990.31
2018-03-03T07:02:00.072Z,990.36
2018-03-03T07:03:00.078Z,990.34
2018-03-03T07:04:00.089Z,990.35
2018-03-03T07:05:00.141Z,990.38
2018-03-03T07:06:00.094Z,990.36
2018-03-03T07:07:00.102Z,990.4
2018-03-03T07:08:00.108Z,990.38
2018-03-03T07:09:00.117Z,990.4
2018-03-03T07:10:00.120Z,990.42
2018-03-03T07:11:00.126Z,990.45
2018-03-03T07:12:00.132Z,990.43
2018-03-03T07:13:00.139Z,990.44
2018-03-03T07:14:00.145Z,990.48
2018-03-03T07:15:00.225Z,990.45
2018-03-03T07:16:00.162Z,990.44
2018-03-03T07:17:00.164Z,990.48
2018-03-03T07:18:00.167Z,990.51
2018-03-03T07:19:00.175Z,990.52
2018-03-03T07:20:00.185Z,990.51
2018-03-03T07:21:00.190Z,990.53
2018-03-03T07:22:00.192Z,990.56
2018-03-03T07:23:00.199Z,990.55
2018-03-03T07:24:00.204Z,990.55
2018-03-03T07:25:00.211Z,990.53
2018-03-03T07:26:00.217Z,990.51
2018-03-03T07:27:00.233Z,990.53
2018-03-03T07:28:00.233Z,990.58
2018-03-03T07:29:00.234Z,990.53
2018-03-03T07:30:00.240Z,990.59
2018-03-03T07:31:00.247Z,990.58
2018-03-03T07:32:00.252Z,990.51
2018-03-03T07:33:00.259Z,990.53
2018-03-03T07:34:00.273Z,990.52
2018-03-03T07:35:00.272Z,990.53
2018-03-03T07:36:00.279Z,990.53
2018-03-03T07:37:00.288Z,990.59
2018-03-03T07:38:00.290Z,990.56
2018-03-03T07:39:00.297Z,990.55
2018-03-03T07:40:00.304Z,990.59
2018-03-03T07:41:00.308Z,990.59
2018-03-03T07:42:00.315Z,990.6
2018-03-03T07:43:00.323Z,990.57
2018-03-03T07:44:00.327Z,990.53
2018-03-03T07:45:00.333Z,990.52
2018-03-03T07:46:00.341Z,990.52
2018-03-03T07:47:00.346Z,990.54
2018-03-03T07:48:00.351Z,990.54
2018-03-03T07:49:00.359Z,990.53
2018-03-03T07:50:00.364Z,990.6
2018-03-03T07:51:00.370Z,990.58
2018-03-03T07:52:00.377Z,990.56
2018-03-03T07:53:00.389Z,990.64
2018-03-03T07:54:00.389Z,990.57
2018-03-03T07:55:00.395Z,990.62
2018-03-03T07:56:00.405Z,990.61
2018-03-03T07:57:00.409Z,990.67
2018-03-03T07:58:00.414Z,990.61
2018-03-03T07:59:00.420Z,990.68
2018-03-03T08:00:00.428Z,990.61
2018-03-03T08:01:00.433Z,990.59
2018-03-03T08:02:00.440Z,990.63
2018-03-03T08:03:00.445Z,990.6
2018-03-03T08:04:00.454Z,990.57
2018-03-03T08:05:00.458Z,990.56
2018-03-03T08:06:00.465Z,990.6
2018-03-03T08:07:00.474Z,990.55
2018-03-03T08:08:00.489Z,990.59
2018-03-03T08:09:00.484Z,990.59
2018-03-03T08:10:00.492Z,990.59
2018-03-03T08:11:00.499Z,990.57
2018-03-03T08:12:00.504Z,990.6
2018-03-03T08:13:00.514Z,990.58
2018-03-03T08:14:00.523Z,990.56
2018-03-03T08:15:00.525Z,990.56
2018-03-03T08:16:00.530Z,990.62
2018-03-03T08:17:00.541Z,990.58
2018-03-03T08:18:00.543Z,990.62
2018-03-03T08:19:00.549Z,990.65
2018-03-03T08:20:00.556Z,990.6
2018-03-03T08:21:00.616Z,990.6
2018-03-03T08:22:00.650Z,990.62
2018-03-03T08:23:00.576Z,990.61
2018-03-03T08:24:00.582Z,990.6
2018-03-03T08:25:00.589Z,990.58
2018-03-03T08:26:00.655Z,990.55
2018-03-03T08:27:00.604Z,990.55
2018-03-03T08:28:00.649Z,990.55
2018-03-03T08:29:00.616Z,990.58
2018-03-03T08:30:00.620Z,990.51
2018-03-03T08:31:00.678Z,990.52
2018-03-03T08:32:00.636Z,990.56
2018-03-03T08:33:00.642Z,990.56
2018-03-03T08:34:00.648Z,990.5
2018-03-03T08:35:00.655Z,990.54
2018-03-03T08:36:00.832Z,990.53
2018-03-03T08:37:00.668Z,990.47
2018-03-03T08:38:00.679Z,990.49
2018-03-03T08:39:00.724Z,990.45
2018-03-03T08:40:00.691Z,990.43
2018-03-03T08:41:00.695Z,990.49
2018-03-03T08:42:00.704Z,990.51
2018-03-03T08:43:00.710Z,990.44
2018-03-03T08:44:00.716Z,990.44
2018-03-03T08:45:00.722Z,990.43
2018-03-03T08:46:00.738Z,990.38
2018-03-03T08:47:00.738Z,990.44
2018-03-03T08:48:00.745Z,990.45
2018-03-03T08:49:00.751Z,990.46
2018-03-03T08:50:00.764Z,990.4
2018-03-03T08:51:00.764Z,990.36
2018-03-03T08:52:00.772Z,990.4
2018-03-03T08:53:00.779Z,990.44
2018-03-03T08:54:00.785Z,990.38
2018-03-03T08:55:00.793Z,990.4
2018-03-03T08:56:00.803Z,990.44
2018-03-03T08:57:00.807Z,990.41
2018-03-03T08:58:00.815Z,990.43
2018-03-03T08:59:00.820Z,990.36
2018-03-03T09:00:00.830Z,990.39
2018-03-03T09:01:00.834Z,990.41
2018-03-03T09:02:00.840Z,990.41
2018-03-03T09:03:00.848Z,990.44
2018-03-03T09:04:00.855Z,990.42
2018-03-03T09:05:00.862Z,990.44
2018-03-03T09:06:00.872Z,990.4
2018-03-03T09:07:00.876Z,990.39
2018-03-03T09:08:00.882Z,990.42
2018-03-03T09:09:00.891Z,990.41
2018-03-03T09:10:00.898Z,990.43
2018-03-03T09:11:00.904Z,990.41
2018-03-03T09:12:00.913Z,990.38
2018-03-03T09:13:00.918Z,990.43
2018-03-03T09:14:00.933Z,990.4
2018-03-03T09:15:00.933Z,990.4
2018-03-03T09:16:00.957Z,990.44
2018-03-03T09:17:00.947Z,990.44
2018-03-03T09:18:00.956Z,990.45
2018-03-03T09:19:01.021Z,990.46
2018-03-03T09:20:00.974Z,990.43
2018-03-03T09:21:00.977Z,990.44
2018-03-03T09:22:00.993Z,990.48
2018-03-03T09:23:00.991Z,990.43
2018-03-03T09:24:00.998Z,990.44
2018-03-03T09:25:01.005Z,990.45
2018-03-03T09:26:01.015Z,990.42
2018-03-03T09:27:01.020Z,990.43
2018-03-03T09:28:01.103Z,990.46
2018-03-03T09:29:01.035Z,990.39
2018-03-03T09:30:01.051Z,990.4
2018-03-03T09:31:01.052Z,990.37
2018-03-03T09:32:01.057Z,990.36
2018-03-03T09:33:01.065Z,990.32
2018-03-03T09:34:01.076Z,990.35
2018-03-03T09:35:01.079Z,990.37
2018-03-03T09:36:01.127Z,990.41
2018-03-03T09:37:01.095Z,990.39
2018-03-03T09:38:01.107Z,990.41
2018-03-03T09:39:01.109Z,990.39
2018-03-03T09:40:01.118Z,990.36
2018-03-03T09:41:01.125Z,990.4
2018-03-03T09:42:01.140Z,990.39
2018-03-03T09:43:01.148Z,990.36
2018-03-03T09:44:01.153Z,990.33
2018-03-03T09:45:01.156Z,990.35
2018-03-03T09:46:01.171Z,990.35
2018-03-03T09:47:01.171Z,990.34
2018-03-03T09:48:01.184Z,990.36
2018-03-03T09:49:01.186Z,990.36
2018-03-03T09:50:01.205Z,990.38
2018-03-03T09:51:01.202Z,990.37
2018-03-03T09:52:01.263Z,990.36
2018-03-03T09:53:01.218Z,990.35
2018-03-03T09:54:01.229Z,990.35
2018-03-03T09:55:01.232Z,990.37
2018-03-03T09:56:01.245Z,990.41
2018-03-03T09:57:01.299Z,990.33
2018-03-03T09:58:01.264Z,990.39
2018-03-03T09:59:01.264Z,990.35
2018-03-03T10:00:01.273Z,990.3
2018-03-03T10:01:01.282Z,990.33
2018-03-03T10:02:06.292Z,990.37
2018-03-03T10:03:01.295Z,990.37
2018-03-03T10:04:01.304Z,990.36
2018-03-03T10:05:01.312Z,990.35
2018-03-03T10:06:01.325Z,990.32
2018-03-03T10:07:01.379Z,990.38
2018-03-03T10:08:01.342Z,990.38
2018-03-03T10:09:01.342Z,990.39
2018-03-03T10:10:01.352Z,990.36
2018-03-03T10:11:01.366Z,990.36
2018-03-03T10:12:01.368Z,990.36
2018-03-03T10:13:01.374Z,990.38
2018-03-03T10:14:01.404Z,990.38
2018-03-03T10:15:01.410Z,990.32
2018-03-03T10:16:01.403Z,990.35
2018-03-03T10:17:01.410Z,990.3
2018-03-03T10:18:01.415Z,990.31
2018-03-03T10:19:01.424Z,990.32
2018-03-03T10:20:01.433Z,990.36
2018-03-03T10:21:01.440Z,990.29
2018-03-03T10:22:01.454Z,990.29
2018-03-03T10:23:01.457Z,990.21
2018-03-03T10:24:01.468Z,990.21
2018-03-03T10:25:01.472Z,990.24
2018-03-03T10:26:01.481Z,990.19
2018-03-03T10:27:01.488Z,990.17
2018-03-03T10:28:01.496Z,990.19
2018-03-03T10:29:01.505Z,990.24
2018-03-03T10:30:01.515Z,990.19
2018-03-03T10:31:01.521Z,990.2
2018-03-03T10:32:01.529Z,990.22
2018-03-03T10:33:01.573Z,990.26
2018-03-03T10:34:01.546Z,990.24
2018-03-03T10:35:01.555Z,990.23
2018-03-03T10:36:01.564Z,990.32
2018-03-03T10:37:01.571Z,990.29
2018-03-03T10:38:01.579Z,990.37
2018-03-03T10:39:01.587Z,990.32
2018-03-03T10:40:01.597Z,990.33
2018-03-03T10:41:01.605Z,990.34
2018-03-03T10:42:01.611Z,990.33
2018-03-03T10:43:01.621Z,990.36
2018-03-03T10:44:01.636Z,990.33
2018-03-03T10:45:01.638Z,990.34
2018-03-03T10:46:01.646Z,990.35
2018-03-03T10:47:01.655Z,990.35
2018-03-03T10:48:01.672Z,990.39
2018-03-03T10:49:01.670Z,990.39
2018-03-03T10:50:01.678Z,990.39
2018-03-03T10:51:01.687Z,990.38
2018-03-03T10:52:01.696Z,990.43
2018-03-03T10:53:01.704Z,990.36
2018-03-03T10:54:01.713Z,990.36
2018-03-03T10:55:01.721Z,990.35
2018-03-03T10:56:01.733Z,990.37
2018-03-03T10:57:01.740Z,990.33
2018-03-03T10:58:01.750Z,990.37
2018-03-03T10:59:01.756Z,990.32
2018-03-03T11:00:01.764Z,990.37
2018-03-03T11:01:01.776Z,990.32
2018-03-03T11:02:01.782Z,990.3
2018-03-03T11:03:01.790Z,990.28
2018-03-03T11:04:01.853Z,990.28
2018-03-03T11:05:01.809Z,990.29
2018-03-03T11:06:01.815Z,990.22
2018-03-03T11:07:01.824Z,990.25
2018-03-03T11:08:01.832Z,990.29
2018-03-03T11:09:01.840Z,990.2
2018-03-03T11:10:01.851Z,990.23
2018-03-03T11:11:01.858Z,990.29
2018-03-03T11:12:01.867Z,990.22
2018-03-03T11:13:01.880Z,990.24
2018-03-03T11:14:01.884Z,990.17
2018-03-03T11:15:01.893Z,990.17
2018-03-03T11:16:01.902Z,990.15
2018-03-03T11:17:01.929Z,990.2
2018-03-03T11:18:01.921Z,990.16
2018-03-03T11:19:01.933Z,990.18
2018-03-03T11:20:01.939Z,990.14
2018-03-03T11:21:01.947Z,990.22
2018-03-03T11:22:01.956Z,990.23
2018-03-03T11:23:01.967Z,990.19
2018-03-03T11:24:01.974Z,990.21
2018-03-03T11:25:01.984Z,990.21
2018-03-03T11:26:01.994Z,990.18
2018-03-03T11:27:02.000Z,990.2
2018-03-03T11:28:02.011Z,990.17
2018-03-03T11:29:02.022Z,990.16
2018-03-03T11:30:02.029Z,990.15
2018-03-03T11:31:02.039Z,990.15
2018-03-03T11:32:02.050Z,990.19
2018-03-03T11:33:02.058Z,990.13
2018-03-03T11:34:02.066Z,990.16
2018-03-03T11:35:02.073Z,990.13
2018-03-03T11:36:02.083Z,990.13
2018-03-03T11:37:02.091Z,990.16
2018-03-03T11:38:02.101Z,990.13
2018-03-03T11:39:02.110Z,990.19
2018-03-03T11:40:02.118Z,990.14
2018-03-03T11:41:02.128Z,990.13
2018-03-03T11:42:02.138Z,990.19
2018-03-03T11:43:02.147Z,990.18
2018-03-03T11:44:02.156Z,990.17
2018-03-03T11:45:02.166Z,990.13
2018-03-03T11:46:02.175Z,990.19
2018-03-03T11:47:02.185Z,990.17
2018-03-03T11:48:02.193Z,990.16
2018-03-03T11:49:02.202Z,990.14
2018-03-03T11:50:02.213Z,990.16
2018-03-03T11:51:02.220Z,990.13
2018-03-03T11:52:02.230Z,990.15
2018-03-03T11:53:02.268Z,990.15
2018-03-03T11:54:02.249Z,990.13
2018-03-03T11:55:02.260Z,990.15
2018-03-03T11:56:02.268Z,990.13
2018-03-03T11:57:02.278Z,990.15
2018-03-03T11:58:02.287Z,990.15
2018-03-03T11:59:02.295Z,990.16
2018-03-03T12:00:02.306Z,990.15
2018-03-03T12:01:02.316Z,990.14
2018-03-03T12:02:02.325Z,990.18
2018-03-03T12:03:02.334Z,990.12
2018-03-03T12:04:02.343Z,990.19
2018-03-03T12:05:02.353Z,990.11
2018-03-03T12:06:02.362Z,990.1
2018-03-03T12:07:02.372Z,990.21
2018-03-03T12:08:02.382Z,990.21
2018-03-03T12:09:02.393Z,990.17
2018-03-03T12:10:02.400Z,990.17
2018-03-03T12:11:02.409Z,990.12
2018-03-03T12:12:02.420Z,990.13
2018-03-03T12:13:02.428Z,990.17
2018-03-03T12:14:02.446Z,990.14
2018-03-03T12:15:02.449Z,990.12
2018-03-03T12:16:02.457Z,990.1
2018-03-03T12:17:02.466Z,990.11
2018-03-03T12:18:02.476Z,990.12
2018-03-03T12:19:02.543Z,990.13
2018-03-03T12:20:02.497Z,990.1
2018-03-03T12:21:02.505Z,990.09
2018-03-03T12:22:02.516Z,990.08
2018-03-03T12:23:02.528Z,990.1
2018-03-03T12:24:02.535Z,990.09
2018-03-03T12:25:02.543Z,990.11
2018-03-03T12:26:02.553Z,990.13
2018-03-03T12:27:02.562Z,990.15
2018-03-03T12:28:02.575Z,990.13
2018-03-03T12:29:02.581Z,990.17
2018-03-03T12:30:02.593Z,990.14
2018-03-03T12:31:02.601Z,990.09